Time;durP1;ratioP1;P1;durP2;ratioP2;P2;SDS_P1;SDS_P2;PMS_P1;PMS_P2;Temp;Humidity;BMP_temperature;BMP_pressure;BME280_temperature;BME280_humidity;BME280_pressure;Samples;Min_cycle;Max_cycle;Signal;HPM_P1;HPM_P2
2022/12/06 00:00:11;;;;;;;33.17;15.45;;;;;;;;;;4981573;28;20030;-89
2022/12/06 00:02:42;;;;;;;31.83;14.48;;;;;;;;;;4977708;28;20113;-89
2022/12/06 00:05:14;;;;;;;31.95;14.82;;;;;;;;;;4985552;28;20433;-89
2022/12/06 00:07:43;;;;;;;32.88;15.88;;;;;;;;;;4995275;28;20040;-89
2022/12/06 00:10:08;;;;;;;32.60;16.17;;;;;;;;;;4982044;28;20038;-89
2022/12/06 00:12:36;;;;;;;30.10;14.50;;;;;;;;;;4974880;28;20042;-89
2022/12/06 00:15:02;;;;;;;34.65;15.35;;;;;;;;;;4980648;28;20033;-88
2022/12/06 00:17:28;;;;;;;35.20;15.85;;;;;;;;;;4979186;28;20109;-88
2022/12/06 00:19:58;;;;;;;32.63;15.98;;;;;;;;;;4979442;28;20026;-88
2022/12/06 00:22:29;;;;;;;33.90;17.30;;;;;;;;;;4978370;28;20363;-89
2022/12/06 00:24:57;;;;;;;32.40;14.93;;;;;;;;;;4989075;28;20428;-89
2022/12/06 00:27:29;;;;;;;31.92;15.98;;;;;;;;;;4986457;28;20556;-90
2022/12/06 00:30:08;;;;;;;33.33;15.55;;;;;;;;;;4975631;28;20061;-90
2022/12/06 00:32:44;;;;;;;30.10;14.35;;;;;;;;;;4980134;28;20030;-90
2022/12/06 00:35:16;;;;;;;31.35;14.98;;;;;;;;;;4977142;28;20022;-89
2022/12/06 00:37:44;;;;;;;39.15;15.35;;;;;;;;;;4972519;28;20034;-89
2022/12/06 00:40:12;;;;;;;36.67;16.10;;;;;;;;;;4982180;28;20026;-90
2022/12/06 00:42:43;;;;;;;30.15;14.82;;;;;;;;;;4984971;28;20105;-89
2022/12/06 00:45:09;;;;;;;30.92;14.50;;;;;;;;;;4988372;28;20016;-89
2022/12/06 00:47:36;;;;;;;35.22;16.35;;;;;;;;;;4980627;28;20034;-89
2022/12/06 00:50:02;;;;;;;39.92;17.35;;;;;;;;;;4978775;28;20060;-88
2022/12/06 00:52:33;;;;;;;33.67;15.57;;;;;;;;;;4972178;28;20030;-89
2022/12/06 00:55:00;;;;;;;33.40;15.65;;;;;;;;;;4975962;28;20053;-88
2022/12/06 00:57:29;;;;;;;32.63;15.80;;;;;;;;;;4976841;28;20033;-89
2022/12/06 00:59:57;;;;;;;30.65;15.95;;;;;;;;;;4980535;28;20027;-89
2022/12/06 01:02:22;;;;;;;33.63;15.75;;;;;;;;;;4973726;28;20076;-88
2022/12/06 01:04:50;;;;;;;31.27;14.57;;;;;;;;;;4984875;28;20019;-89
2022/12/06 01:07:19;;;;;;;32.50;14.93;;;;;;;;;;4981271;28;20023;-89
2022/12/06 01:09:47;;;;;;;41.72;16.50;;;;;;;;;;4988410;28;20034;-89
2022/12/06 01:12:13;;;;;;;36.10;15.82;;;;;;;;;;4988812;28;20019;-89
2022/12/06 01:14:44;;;;;;;41.22;16.52;;;;;;;;;;4983390;28;20030;-89
2022/12/06 01:17:12;;;;;;;39.35;16.38;;;;;;;;;;4990003;28;20029;-90
2022/12/06 01:19:47;;;;;;;;;;;;;;;;;;;;;
2022/12/06 01:22:13;;;;;;;39.67;15.85;;;;;;;;;;4984180;28;20029;-89
2022/12/06 01:24:42;;;;;;;38.03;15.63;;;;;;;;;;4980958;28;20018;-89
2022/12/06 01:27:15;;;;;;;40.85;15.65;;;;;;;;;;5001966;28;20092;-88
2022/12/06 01:29:43;;;;;;;43.47;16.08;;;;;;;;;;4984037;28;20474;-90
2022/12/06 01:32:20;;;;;;;40.70;16.02;;;;;;;;;;4977649;28;20034;-89
2022/12/06 01:34:51;;;;;;;46.05;16.77;;;;;;;;;;4993765;28;20473;-90
2022/12/06 01:37:25;;;;;;;45.53;17.60;;;;;;;;;;4983123;28;20053;-89
2022/12/06 01:39:54;;;;;;;40.53;17.30;;;;;;;;;;4975651;28;20023;-89
2022/12/06 01:42:25;;;;;;;40.60;16.73;;;;;;;;;;4980642;28;20018;-89
2022/12/06 01:44:56;;;;;;;44.67;17.23;;;;;;;;;;4992633;28;20069;-89
2022/12/06 01:47:37;;;;;;;46.42;17.70;;;;;;;;;;4975990;28;20110;-89
2022/12/06 01:50:05;;;;;;;39.63;16.48;;;;;;;;;;4991215;28;20026;-89
2022/12/06 01:52:35;;;;;;;49.35;20.13;;;;;;;;;;4979144;28;20034;-88
2022/12/06 01:55:09;;;;;;;55.58;21.33;;;;;;;;;;4979522;28;20484;-88
2022/12/06 01:57:46;;;;;;;56.05;21.02;;;;;;;;;;4973323;28;20067;-89
2022/12/06 02:00:21;;;;;;;80.93;25.20;;;;;;;;;;4978498;28;20078;-89
2022/12/06 02:02:46;;;;;;;68.00;21.98;;;;;;;;;;4984481;28;20042;-89
2022/12/06 02:05:12;;;;;;;58.50;20.35;;;;;;;;;;4986075;28;20014;-89
2022/12/06 02:07:38;;;;;;;62.40;22.27;;;;;;;;;;4987052;28;20038;-89
2022/12/06 02:10:04;;;;;;;64.35;21.23;;;;;;;;;;4993696;28;20146;-90
2022/12/06 02:12:29;;;;;;;69.30;20.65;;;;;;;;;;5003405;28;20026;-90
2022/12/06 02:14:55;;;;;;;72.10;21.20;;;;;;;;;;5001591;28;20049;-88
2022/12/06 02:17:39;;;;;;;57.67;21.40;;;;;;;;;;4983903;28;20079;-88
2022/12/06 02:20:26;;;;;;;64.57;19.45;;;;;;;;;;4986019;28;20141;-88
2022/12/06 02:23:21;;;;;;;55.90;18.73;;;;;;;;;;4984546;28;20028;-89
2022/12/06 02:26:08;;;;;;;60.97;19.10;;;;;;;;;;4992602;28;20107;-89
2022/12/06 02:28:42;;;;;;;53.15;17.67;;;;;;;;;;4998913;28;20166;-88
2022/12/06 02:31:15;;;;;;;59.22;18.98;;;;;;;;;;4981245;28;20030;-89
2022/12/06 02:34:04;;;;;;;60.72;19.52;;;;;;;;;;4989095;28;20447;-88
2022/12/06 02:36:52;;;;;;;61.47;22.35;;;;;;;;;;4983416;28;20026;-89
2022/12/06 02:39:41;;;;;;;82.97;21.17;;;;;;;;;;4978624;28;20495;-88
2022/12/06 02:42:18;;;;;;;67.90;21.42;;;;;;;;;;4978614;28;20027;-89
2022/12/06 02:44:50;;;;;;;78.60;23.77;;;;;;;;;;5002275;28;20088;-89
2022/12/06 02:47:19;;;;;;;79.15;23.35;;;;;;;;;;4991690;28;20037;-89
2022/12/06 02:49:48;;;;;;;69.43;21.25;;;;;;;;;;4992637;28;20033;-89
2022/12/06 02:52:28;;;;;;;;;;;;;;;;;;;;;
2022/12/06 02:55:06;;;;;;;62.88;21.92;;;;;;;;;;4979635;28;20029;-89
2022/12/06 02:57:50;;;;;;;87.85;24.70;;;;;;;;;;4998659;28;20042;-89
2022/12/06 03:00:33;;;;;;;99.95;25.25;;;;;;;;;;4976683;28;20040;-90
2022/12/06 03:03:17;;;;;;;65.55;20.77;;;;;;;;;;4990426;28;20297;-90
2022/12/06 03:06:03;;;;;;;77.75;22.00;;;;;;;;;;4977528;28;20735;-89
2022/12/06 03:08:34;;;;;;;69.05;21.25;;;;;;;;;;4967961;28;20035;-90
2022/12/06 03:11:11;;;;;;;;;;;;;;;;;;;;;
2022/12/06 03:14:01;;;;;;;73.22;24.83;;;;;;;;;;4982999;28;20034;-89
2022/12/06 03:16:46;;;;;;;62.03;21.35;;;;;;;;;;4985037;28;20037;-89
2022/12/06 03:19:15;;;;;;;72.13;22.05;;;;;;;;;;4980783;28;20030;-88
2022/12/06 03:21:44;;;;;;;99.22;25.70;;;;;;;;;;4981194;28;20051;-89
2022/12/06 03:24:20;;;;;;;91.10;23.90;;;;;;;;;;4984187;28;20023;-89
2022/12/06 03:26:53;;;;;;;90.07;24.10;;;;;;;;;;4990153;28;20057;-89
2022/12/06 03:29:20;;;;;;;71.95;22.30;;;;;;;;;;4996648;28;20026;-89
2022/12/06 03:31:50;;;;;;;73.40;22.00;;;;;;;;;;5004781;28;20026;-89
2022/12/06 03:34:29;;;;;;;72.90;22.45;;;;;;;;;;4987762;28;20026;-88
2022/12/06 03:37:07;;;;;;;86.22;21.75;;;;;;;;;;4982070;28;20045;-88
2022/12/06 03:39:40;;;;;;;97.00;22.92;;;;;;;;;;4984225;28;20026;-89
2022/12/06 03:42:09;;;;;;;96.78;21.50;;;;;;;;;;4981549;28;20023;-90
2022/12/06 03:44:40;;;;;;;147.40;25.42;;;;;;;;;;4986870;28;20034;-89
2022/12/06 03:47:27;;;;;;;104.40;22.77;;;;;;;;;;4985618;28;20508;-90
2022/12/06 03:50:18;;;;;;;92.10;22.50;;;;;;;;;;4982982;28;20022;-88
2022/12/06 03:53:02;;;;;;;67.40;21.40;;;;;;;;;;4984528;28;20028;-90
2022/12/06 03:55:29;;;;;;;64.55;21.65;;;;;;;;;;4983226;28;20357;-90
2022/12/06 03:57:58;;;;;;;98.13;23.15;;;;;;;;;;4986398;28;20085;-88
2022/12/06 04:00:52;;;;;;;82.40;20.77;;;;;;;;;;4976612;28;20479;-89
2022/12/06 04:03:41;;;;;;;;;;;;;;;;;;;;;
2022/12/06 04:12:06;;;;;;;;;;;;;;;;;;;;;
2022/12/06 04:14:40;;;;;;;96.38;21.98;;;;;;;;;;4982724;28;20033;-90
2022/12/06 04:19:57;;;;;;;149.90;27.38;;;;;;;;;;4977898;28;20038;-89
2022/12/06 04:25:40;;;;;;;92.57;23.42;;;;;;;;;;4978415;28;20037;-90
2022/12/06 04:40:53;;;;;;;139.63;23.98;;;;;;;;;;4962603;28;20033;-89
2022/12/06 04:43:43;;;;;;;96.47;23.88;;;;;;;;;;4989237;28;20053;-90
2022/12/06 04:46:20;;;;;;;150.85;24.33;;;;;;;;;;4985465;28;20424;-90
2022/12/06 04:48:57;;;;;;;190.13;27.70;;;;;;;;;;4989131;28;20018;-90
2022/12/06 04:51:33;;;;;;;121.60;24.85;;;;;;;;;;4978836;28;20061;-90
2022/12/06 04:54:11;;;;;;;;;;;;;;;;;;;;;
2022/12/06 04:56:43;;;;;;;153.30;27.13;;;;;;;;;;4973696;28;20392;-89
2022/12/06 04:59:26;;;;;;;;;;;;;;;;;;;;;
2022/12/06 05:02:08;;;;;;;131.68;25.95;;;;;;;;;;4984211;28;20030;-89
2022/12/06 05:11:33;;;;;;;;;;;;;;;;;;;;;
2022/12/06 05:17:47;;;;;;;;;;;;;;;;;;;;;
2022/12/06 05:36:21;;;;;;;104.35;23.50;;;;;;;;;;4962557;28;20595;-90
2022/12/06 05:39:30;;;;;;;141.63;25.20;;;;;;;;;;4964125;28;20493;-89
2022/12/06 05:42:15;;;;;;;110.88;24.58;;;;;;;;;;4964840;28;20113;-90
2022/12/06 05:45:31;;;;;;;139.20;24.40;;;;;;;;;;4979206;28;20033;-90
2022/12/06 05:48:29;;;;;;;;;;;;;;;;;;;;;
2022/12/06 05:51:04;;;;;;;111.53;24.80;;;;;;;;;;4980709;28;20040;-90
2022/12/06 05:53:33;;;;;;;188.98;30.48;;;;;;;;;;4978264;28;20049;-90
2022/12/06 05:56:11;;;;;;;249.13;34.42;;;;;;;;;;4977090;28;20030;-89
2022/12/06 05:58:37;;;;;;;247.23;34.75;;;;;;;;;;4975550;28;20113;-90
2022/12/06 06:01:28;;;;;;;303.75;40.40;;;;;;;;;;4986812;28;20030;-88
2022/12/06 06:04:18;;;;;;;166.75;32.78;;;;;;;;;;4981413;28;20014;-89
2022/12/06 06:07:02;;;;;;;153.20;32.47;;;;;;;;;;4985042;28;20784;-90
2022/12/06 06:09:39;;;;;;;146.85;30.27;;;;;;;;;;4983813;28;20081;-89
2022/12/06 06:12:20;;;;;;;284.17;37.20;;;;;;;;;;4980062;28;20022;-89
2022/12/06 06:17:56;;;;;;;326.40;37.23;;;;;;;;;;4977734;28;20652;-90
2022/12/06 06:20:33;;;;;;;119.38;29.13;;;;;;;;;;4975688;28;20045;-89
2022/12/06 06:26:08;;;;;;;146.43;31.63;;;;;;;;;;4986944;28;20030;-89
2022/12/06 06:35:41;;;;;;;245.27;35.78;;;;;;;;;;4917116;29;20032;-89
2022/12/06 06:38:06;;;;;;;145.45;31.40;;;;;;;;;;5183072;23;20038;-71
2022/12/06 06:40:32;;;;;;;175.45;32.38;;;;;;;;;;4989995;28;20041;-69
2022/12/06 06:42:57;;;;;;;143.05;32.28;;;;;;;;;;4982618;28;20018;-69
2022/12/06 06:45:41;;;;;;;132.07;31.00;;;;;;;;;;4980728;28;20045;-68
2022/12/06 06:48:07;;;;;;;174.00;30.67;;;;;;;;;;4983674;28;20023;-69
2022/12/06 06:50:32;;;;;;;144.05;32.55;;;;;;;;;;4987963;28;20022;-68
2022/12/06 06:52:57;;;;;;;149.23;31.37;;;;;;;;;;4984498;28;20018;-72
2022/12/06 06:55:22;;;;;;;138.55;30.30;;;;;;;;;;4982122;28;20281;-72
2022/12/06 06:57:47;;;;;;;151.27;30.45;;;;;;;;;;4982214;28;20045;-69
2022/12/06 07:00:13;;;;;;;144.23;31.37;;;;;;;;;;4981829;28;20189;-71
2022/12/06 07:02:38;;;;;;;150.85;32.45;;;;;;;;;;4984993;28;20289;-68
2022/12/06 07:05:03;;;;;;;162.90;30.27;;;;;;;;;;4988322;28;20022;-69
2022/12/06 07:07:30;;;;;;;154.05;30.10;;;;;;;;;;4989277;28;20056;-68
2022/12/06 07:09:55;;;;;;;138.70;29.63;;;;;;;;;;4989340;28;20428;-70
2022/12/06 07:12:20;;;;;;;259.38;36.85;;;;;;;;;;4991547;28;20049;-70
2022/12/06 07:14:45;;;;;;;209.63;32.45;;;;;;;;;;4983214;28;20296;-72
2022/12/06 07:17:11;;;;;;;439.42;52.13;;;;;;;;;;4985642;28;20072;-70
2022/12/06 07:19:36;;;;;;;242.65;34.60;;;;;;;;;;4985678;28;20018;-69
2022/12/06 07:22:01;;;;;;;195.07;34.22;;;;;;;;;;4987305;28;20387;-70
2022/12/06 07:24:26;;;;;;;247.30;37.47;;;;;;;;;;4987957;28;20114;-69
2022/12/06 07:26:51;;;;;;;206.93;33.40;;;;;;;;;;4984031;28;20277;-69
2022/12/06 07:29:17;;;;;;;165.95;32.17;;;;;;;;;;4978702;28;20054;-74
2022/12/06 07:31:42;;;;;;;217.60;36.25;;;;;;;;;;4982539;28;20414;-68
2022/12/06 07:34:08;;;;;;;169.77;34.28;;;;;;;;;;4984294;28;20029;-69
2022/12/06 07:36:33;;;;;;;233.23;37.60;;;;;;;;;;4979317;28;20022;-70
2022/12/06 07:38:59;;;;;;;155.27;33.40;;;;;;;;;;4980384;28;20394;-71
2022/12/06 07:46:55;;;;;;;175.88;34.45;;;;;;;;;;4982976;28;20474;-68
2022/12/06 07:49:20;;;;;;;405.73;46.90;;;;;;;;;;4980804;28;20034;-68
2022/12/06 07:51:45;;;;;;;176.88;34.72;;;;;;;;;;4983150;28;20033;-70
2022/12/06 07:54:11;;;;;;;180.60;35.50;;;;;;;;;;4986012;28;20050;-68
2022/12/06 07:56:36;;;;;;;259.85;39.80;;;;;;;;;;4988888;28;20487;-69
2022/12/06 07:59:01;;;;;;;273.65;39.70;;;;;;;;;;4987372;28;20065;-69
2022/12/06 08:01:26;;;;;;;205.65;35.28;;;;;;;;;;4986698;28;20030;-68
2022/12/06 08:03:54;;;;;;;192.82;36.95;;;;;;;;;;4985108;28;20467;-72
2022/12/06 08:06:19;;;;;;;187.85;34.17;;;;;;;;;;4989430;28;20471;-69
2022/12/06 08:08:45;;;;;;;254.35;39.28;;;;;;;;;;4987396;28;20029;-68
2022/12/06 08:11:10;;;;;;;210.07;35.55;;;;;;;;;;4987023;28;20109;-70
2022/12/06 08:13:35;;;;;;;142.27;32.30;;;;;;;;;;4988393;28;20018;-68
2022/12/06 08:16:08;;;;;;;119.57;31.15;;;;;;;;;;4985848;28;20284;-70
2022/12/06 08:18:33;;;;;;;134.57;33.90;;;;;;;;;;4983787;28;20022;-69
2022/12/06 08:20:58;;;;;;;136.20;30.42;;;;;;;;;;4985453;28;20059;-68
2022/12/06 08:23:23;;;;;;;150.13;33.88;;;;;;;;;;4987468;28;20422;-69
2022/12/06 08:25:58;;;;;;;152.75;33.47;;;;;;;;;;4989916;28;20405;-69
2022/12/06 08:28:24;;;;;;;162.95;34.53;;;;;;;;;;4983277;28;20432;-68
2022/12/06 08:30:49;;;;;;;149.35;34.03;;;;;;;;;;4983048;28;20026;-72
2022/12/06 08:33:14;;;;;;;170.40;35.88;;;;;;;;;;4981110;28;20022;-70
2022/12/06 08:35:40;;;;;;;125.33;30.27;;;;;;;;;;4985025;28;20030;-70
2022/12/06 08:38:05;;;;;;;127.18;30.48;;;;;;;;;;4986556;28;20668;-68
2022/12/06 08:40:30;;;;;;;123.30;30.48;;;;;;;;;;4988362;28;20076;-70
2022/12/06 08:42:55;;;;;;;122.88;30.35;;;;;;;;;;4982419;28;20030;-69
2022/12/06 08:45:21;;;;;;;130.70;30.40;;;;;;;;;;4986714;28;20030;-69
2022/12/06 08:47:46;;;;;;;120.70;28.30;;;;;;;;;;4986913;28;20033;-68
2022/12/06 08:50:11;;;;;;;127.30;29.35;;;;;;;;;;4985576;28;20281;-69
2022/12/06 08:52:36;;;;;;;153.50;30.48;;;;;;;;;;4988062;28;20023;-68
2022/12/06 08:55:01;;;;;;;134.15;30.35;;;;;;;;;;4982721;28;20391;-69
2022/12/06 08:57:26;;;;;;;139.90;31.48;;;;;;;;;;4986364;28;20030;-70
2022/12/06 08:59:52;;;;;;;136.52;30.10;;;;;;;;;;4985713;28;20030;-68
2022/12/06 09:02:17;;;;;;;139.75;30.92;;;;;;;;;;4982860;28;20022;-68
2022/12/06 09:04:42;;;;;;;124.13;29.00;;;;;;;;;;4985441;28;20514;-69
2022/12/06 09:07:08;;;;;;;121.53;29.87;;;;;;;;;;4985554;28;20097;-70
2022/12/06 09:09:33;;;;;;;118.65;29.75;;;;;;;;;;4987295;28;20340;-68
2022/12/06 09:11:58;;;;;;;150.48;30.13;;;;;;;;;;4978830;28;20050;-69
2022/12/06 09:14:23;;;;;;;153.50;30.27;;;;;;;;;;4986202;28;20038;-68
2022/12/06 09:16:50;;;;;;;131.38;28.17;;;;;;;;;;4982225;28;20407;-69
2022/12/06 09:19:15;;;;;;;103.68;27.63;;;;;;;;;;4985183;28;20426;-68
2022/12/06 09:21:41;;;;;;;114.53;27.20;;;;;;;;;;4981763;28;20033;-69
2022/12/06 09:24:12;;;;;;;104.00;27.30;;;;;;;;;;4981635;28;20041;-70
2022/12/06 09:26:37;;;;;;;99.65;26.60;;;;;;;;;;4987983;28;20387;-69
2022/12/06 09:29:03;;;;;;;94.28;25.48;;;;;;;;;;4982971;28;20030;-72
2022/12/06 09:31:28;;;;;;;97.32;23.92;;;;;;;;;;4982488;28;20545;-69
2022/12/06 09:33:53;;;;;;;92.55;25.70;;;;;;;;;;4986274;28;20081;-68
2022/12/06 09:36:21;;;;;;;88.43;23.50;;;;;;;;;;4988005;28;20058;-69
2022/12/06 09:38:48;;;;;;;95.97;25.45;;;;;;;;;;4984404;28;20087;-69
2022/12/06 09:41:22;;;;;;;97.18;24.42;;;;;;;;;;4977765;28;20026;-68
2022/12/06 09:44:06;;;;;;;100.55;25.77;;;;;;;;;;4983895;28;20030;-72
2022/12/06 09:46:31;;;;;;;116.70;29.00;;;;;;;;;;4988277;28;20019;-69
2022/12/06 09:49:15;;;;;;;109.65;27.52;;;;;;;;;;4982333;28;20435;-68
2022/12/06 09:51:40;;;;;;;102.68;28.70;;;;;;;;;;4984748;28;20289;-68
2022/12/06 09:54:23;;;;;;;104.53;28.13;;;;;;;;;;4979653;28;20494;-69
2022/12/06 09:57:14;;;;;;;135.50;30.13;;;;;;;;;;4985377;28;20336;-70
2022/12/06 10:00:04;;;;;;;84.95;25.98;;;;;;;;;;4988790;28;20024;-69
2022/12/06 10:02:32;;;;;;;120.32;27.35;;;;;;;;;;4986777;28;20102;-68
2022/12/06 10:05:16;;;;;;;105.32;26.88;;;;;;;;;;4988636;28;20427;-69
2022/12/06 10:07:53;;;;;;;106.30;27.90;;;;;;;;;;4987915;28;20027;-69
2022/12/06 10:10:24;;;;;;;104.57;27.33;;;;;;;;;;4985175;28;20064;-68
2022/12/06 10:12:55;;;;;;;111.05;29.08;;;;;;;;;;4986807;28;20033;-69
2022/12/06 10:15:20;;;;;;;101.68;27.58;;;;;;;;;;4984391;28;20026;-70
2022/12/06 10:18:05;;;;;;;146.15;33.78;;;;;;;;;;4981377;28;20034;-70
2022/12/06 10:20:33;;;;;;;122.80;29.35;;;;;;;;;;4982859;28;20568;-69
2022/12/06 10:22:58;;;;;;;125.10;31.08;;;;;;;;;;4984074;28;20026;-70
2022/12/06 10:25:49;;;;;;;101.00;28.25;;;;;;;;;;4986995;28;20026;-69
2022/12/06 10:28:14;;;;;;;116.30;29.38;;;;;;;;;;4988077;28;20599;-70
2022/12/06 10:31:06;;;;;;;123.70;30.42;;;;;;;;;;4979956;28;20034;-72
2022/12/06 10:33:41;;;;;;;109.60;27.98;;;;;;;;;;4979853;28;20031;-73
2022/12/06 10:36:08;;;;;;;132.15;33.35;;;;;;;;;;4986871;28;20034;-71
2022/12/06 10:38:42;;;;;;;106.97;29.58;;;;;;;;;;4983813;28;20055;-70
2022/12/06 10:41:25;;;;;;;118.35;32.53;;;;;;;;;;4982113;28;20030;-68
2022/12/06 10:44:05;;;;;;;112.80;30.55;;;;;;;;;;4985626;28;20026;-68
2022/12/06 10:49:20;;;;;;;117.50;29.88;;;;;;;;;;4987057;28;19917;-68
2022/12/06 10:51:48;;;;;;;113.35;29.23;;;;;;;;;;4982711;28;20026;-68
2022/12/06 10:54:45;;;;;;;103.47;29.58;;;;;;;;;;4983025;28;20105;-69
2022/12/06 10:57:31;;;;;;;109.22;30.15;;;;;;;;;;4984784;28;20406;-69
2022/12/06 11:00:16;;;;;;;104.65;29.73;;;;;;;;;;4967985;28;20038;-68
2022/12/06 11:02:47;;;;;;;98.47;28.73;;;;;;;;;;4976929;28;20549;-69
2022/12/06 11:05:27;;;;;;;109.45;31.80;;;;;;;;;;4984685;28;20463;-69
2022/12/06 11:07:55;;;;;;;104.60;30.52;;;;;;;;;;4986285;28;20025;-68
2022/12/06 11:10:25;;;;;;;104.40;29.63;;;;;;;;;;4985226;28;20113;-69
2022/12/06 11:13:13;;;;;;;111.10;30.05;;;;;;;;;;4986960;28;20038;-69
2022/12/06 11:15:41;;;;;;;102.00;29.08;;;;;;;;;;4970763;28;20035;-68
2022/12/06 11:18:11;;;;;;;104.55;28.70;;;;;;;;;;4986378;28;20037;-71
2022/12/06 11:20:58;;;;;;;110.28;30.73;;;;;;;;;;4986971;28;20104;-68
2022/12/06 11:23:26;;;;;;;104.35;27.98;;;;;;;;;;4988540;28;20030;-68
2022/12/06 11:25:57;;;;;;;94.88;28.17;;;;;;;;;;4984879;28;20027;-71
2022/12/06 11:28:30;;;;;;;102.63;30.00;;;;;;;;;;4990173;28;20014;-69
2022/12/06 11:30:56;;;;;;;103.75;29.58;;;;;;;;;;4988556;28;20109;-71
2022/12/06 11:33:24;;;;;;;87.85;30.42;;;;;;;;;;4984112;28;20105;-68
2022/12/06 11:35:50;;;;;;;97.88;28.77;;;;;;;;;;4988787;28;20430;-68
2022/12/06 11:38:15;;;;;;;89.80;28.48;;;;;;;;;;4984750;28;20089;-71
2022/12/06 11:40:42;;;;;;;95.43;26.17;;;;;;;;;;4989262;28;20025;-68
2022/12/06 11:43:12;;;;;;;82.40;25.35;;;;;;;;;;4987331;28;20038;-71
2022/12/06 11:45:38;;;;;;;88.63;27.13;;;;;;;;;;4989147;28;20118;-70
2022/12/06 11:48:13;;;;;;;79.80;24.83;;;;;;;;;;4985463;28;20014;-71
2022/12/06 11:50:40;;;;;;;84.97;26.05;;;;;;;;;;4985762;28;20060;-69
2022/12/06 11:53:10;;;;;;;84.55;27.88;;;;;;;;;;4986408;28;20386;-70
2022/12/06 11:55:39;;;;;;;78.30;24.92;;;;;;;;;;4987409;28;20026;-69
2022/12/06 11:58:05;;;;;;;74.05;25.65;;;;;;;;;;4986929;28;20053;-68
2022/12/06 12:00:30;;;;;;;70.40;24.27;;;;;;;;;;4981467;28;20145;-70
2022/12/06 12:02:55;;;;;;;74.93;25.58;;;;;;;;;;4983009;28;20278;-68
2022/12/06 12:05:25;;;;;;;66.57;21.83;;;;;;;;;;4986227;28;20022;-71
2022/12/06 12:07:50;;;;;;;74.13;22.63;;;;;;;;;;4984988;28;20044;-68
2022/12/06 12:10:30;;;;;;;69.10;23.95;;;;;;;;;;4989015;28;20068;-72
2022/12/06 12:15:48;;;;;;;60.63;20.67;;;;;;;;;;4985272;28;20044;-69
2022/12/06 12:18:28;;;;;;;54.80;21.55;;;;;;;;;;4986016;28;20019;-70
2022/12/06 12:20:53;;;;;;;;;;;;;;;;;;4986907;28;20556;-68
2022/12/06 12:23:22;;;;;;;59.17;19.02;;;;;;;;;;4987814;28;19993;-70
2022/12/06 12:26:03;;;;;;;57.05;19.33;;;;;;;;;;4985925;28;20098;-68
2022/12/06 12:28:30;;;;;;;47.53;18.63;;;;;;;;;;4983015;28;20030;-68
2022/12/06 12:30:57;;;;;;;46.40;17.33;;;;;;;;;;4981905;28;20026;-72
2022/12/06 12:33:23;;;;;;;107.32;50.35;;;;;;;;;;4981292;28;20026;-73
2022/12/06 12:35:54;;;;;;;46.33;17.77;;;;;;;;;;4981956;28;20515;-72
2022/12/06 12:38:26;;;;;;;43.40;16.48;;;;;;;;;;4990306;28;20065;-68
2022/12/06 12:40:53;;;;;;;42.53;15.15;;;;;;;;;;4986393;28;20026;-69
2022/12/06 12:43:21;;;;;;;37.50;16.38;;;;;;;;;;4982573;28;20449;-72
2022/12/06 12:46:06;;;;;;;42.42;16.55;;;;;;;;;;4982499;28;20101;-71
2022/12/06 12:48:32;;;;;;;40.05;14.77;;;;;;;;;;5011804;23;20036;-72
2022/12/06 12:50:58;;;;;;;39.65;15.70;;;;;;;;;;5003096;28;20072;-72
2022/12/06 12:53:28;;;;;;;36.55;15.15;;;;;;;;;;5000648;28;20029;-72
2022/12/06 12:56:04;;;;;;;36.67;16.23;;;;;;;;;;4997143;28;20034;-72
2022/12/06 12:58:29;;;;;;;35.47;14.52;;;;;;;;;;4994161;28;20018;-73
2022/12/06 13:00:56;;;;;;;36.90;16.00;;;;;;;;;;4977876;28;20549;-72
2022/12/06 13:03:23;;;;;;;38.60;15.57;;;;;;;;;;4983279;28;20269;-73
2022/12/06 13:05:49;;;;;;;30.05;13.80;;;;;;;;;;4980644;28;20093;-72
2022/12/06 13:08:17;;;;;;;43.58;15.65;;;;;;;;;;4984739;28;20462;-72
2022/12/06 13:10:44;;;;;;;34.33;15.38;;;;;;;;;;4986053;28;20628;-72
2022/12/06 13:13:15;;;;;;;31.25;13.80;;;;;;;;;;4984992;28;20045;-73
2022/12/06 13:15:50;;;;;;;47.35;16.08;;;;;;;;;;4983248;28;20034;-72
2022/12/06 13:18:21;;;;;;;38.00;14.98;;;;;;;;;;4983853;28;20034;-73
2022/12/06 13:20:47;;;;;;;31.25;13.82;;;;;;;;;;4984212;28;20096;-72
2022/12/06 13:23:13;;;;;;;32.90;12.68;;;;;;;;;;4985234;28;20541;-72
2022/12/06 13:25:39;;;;;;;26.85;12.50;;;;;;;;;;4983211;28;20055;-71
2022/12/06 13:28:11;;;;;;;29.10;13.15;;;;;;;;;;4980144;28;20053;-72
2022/12/06 13:30:37;;;;;;;37.13;14.65;;;;;;;;;;4982903;28;20121;-72
2022/12/06 13:33:14;;;;;;;33.22;14.18;;;;;;;;;;4986059;28;20120;-72
2022/12/06 13:35:41;;;;;;;29.60;12.65;;;;;;;;;;4983517;28;20014;-72
2022/12/06 13:38:16;;;;;;;25.08;12.32;;;;;;;;;;4973271;28;20033;-72
2022/12/06 13:40:41;;;;;;;24.75;11.00;;;;;;;;;;4978053;28;20022;-71
2022/12/06 13:43:24;;;;;;;21.23;10.97;;;;;;;;;;4982140;28;20026;-72
2022/12/06 13:45:49;;;;;;;21.92;11.32;;;;;;;;;;4983313;28;20305;-72
2022/12/06 13:48:24;;;;;;;21.17;8.60;;;;;;;;;;4978206;28;20216;-72
2022/12/06 13:50:49;;;;;;;19.20;9.38;;;;;;;;;;4979631;28;20317;-72
2022/12/06 13:53:14;;;;;;;20.00;9.40;;;;;;;;;;4978515;28;20054;-72
2022/12/06 13:55:48;;;;;;;18.77;8.65;;;;;;;;;;4976089;28;20093;-72
2022/12/06 13:58:16;;;;;;;16.95;8.93;;;;;;;;;;4984556;28;20109;-72
2022/12/06 14:00:42;;;;;;;17.63;7.70;;;;;;;;;;4978822;28;20031;-72
2022/12/06 14:03:07;;;;;;;15.05;8.30;;;;;;;;;;4986258;28;20026;-72
2022/12/06 14:05:51;;;;;;;15.73;8.68;;;;;;;;;;4980741;28;20305;-72
2022/12/06 14:08:16;;;;;;;13.40;6.70;;;;;;;;;;4977489;28;20022;-72
2022/12/06 14:10:41;;;;;;;14.98;6.90;;;;;;;;;;4977678;28;20359;-72
2022/12/06 14:13:11;;;;;;;12.13;7.23;;;;;;;;;;4980706;28;20928;-72
2022/12/06 14:15:38;;;;;;;19.45;6.88;;;;;;;;;;4982930;28;20293;-72
2022/12/06 14:18:04;;;;;;;13.23;7.22;;;;;;;;;;4986920;28;20089;-72
2022/12/06 14:20:30;;;;;;;20.58;8.02;;;;;;;;;;4983691;28;20499;-72
2022/12/06 14:22:55;;;;;;;17.17;7.75;;;;;;;;;;4979167;28;20084;-72
2022/12/06 14:25:22;;;;;;;14.80;5.78;;;;;;;;;;4988399;28;20105;-72
2022/12/06 14:27:49;;;;;;;14.95;7.15;;;;;;;;;;4990311;28;20390;-72
2022/12/06 14:30:21;;;;;;;14.40;6.63;;;;;;;;;;4986623;28;20406;-72
2022/12/06 14:32:48;;;;;;;13.45;6.32;;;;;;;;;;4985610;28;20014;-72
2022/12/06 14:35:23;;;;;;;19.25;6.60;;;;;;;;;;4987051;28;20022;-72
2022/12/06 14:37:50;;;;;;;20.25;7.65;;;;;;;;;;4984190;28;20635;-73
2022/12/06 14:40:22;;;;;;;12.88;6.75;;;;;;;;;;4982575;28;20015;-72
2022/12/06 14:43:01;;;;;;;15.05;6.57;;;;;;;;;;4982867;28;20475;-72
2022/12/06 14:45:28;;;;;;;16.27;7.72;;;;;;;;;;4988283;28;20061;-72
2022/12/06 14:47:53;;;;;;;11.80;6.65;;;;;;;;;;4987755;28;20030;-72
2022/12/06 14:50:24;;;;;;;14.77;5.95;;;;;;;;;;4988915;28;20121;-71
2022/12/06 14:52:54;;;;;;;14.65;6.03;;;;;;;;;;4988162;28;20110;-72
2022/12/06 14:55:19;;;;;;;12.50;5.07;;;;;;;;;;4984959;28;20022;-72
2022/12/06 14:57:45;;;;;;;12.57;5.82;;;;;;;;;;4983747;28;20024;-71
2022/12/06 15:00:31;;;;;;;19.75;9.10;;;;;;;;;;4982133;28;20027;-72
2022/12/06 15:03:16;;;;;;;14.63;6.35;;;;;;;;;;4983017;28;20049;-72
2022/12/06 15:05:42;;;;;;;13.95;5.95;;;;;;;;;;4985722;28;20027;-72
2022/12/06 15:08:26;;;;;;;12.80;5.80;;;;;;;;;;4985743;28;20145;-72
2022/12/06 15:10:58;;;;;;;16.83;6.55;;;;;;;;;;4983954;28;20043;-71
2022/12/06 15:13:24;;;;;;;15.20;5.72;;;;;;;;;;4985222;28;20114;-72
2022/12/06 15:16:07;;;;;;;11.32;6.00;;;;;;;;;;4987303;28;20104;-72
2022/12/06 15:18:37;;;;;;;14.32;6.13;;;;;;;;;;4984830;28;20022;-71
2022/12/06 15:21:08;;;;;;;17.80;6.25;;;;;;;;;;4987658;28;20029;-72
2022/12/06 15:23:37;;;;;;;22.83;6.60;;;;;;;;;;4983862;28;20035;-71
2022/12/06 15:26:03;;;;;;;16.55;6.50;;;;;;;;;;4988767;28;20486;-71
2022/12/06 15:28:28;;;;;;;12.20;6.03;;;;;;;;;;4985368;28;20027;-72
2022/12/06 15:30:54;;;;;;;20.40;5.93;;;;;;;;;;4986324;28;20065;-71
2022/12/06 15:33:20;;;;;;;23.50;7.38;;;;;;;;;;4985775;28;20064;-72
2022/12/06 15:35:45;;;;;;;22.63;6.72;;;;;;;;;;4987610;28;20026;-71
2022/12/06 15:38:11;;;;;;;24.30;6.55;;;;;;;;;;4980096;28;20391;-72
2022/12/06 15:40:39;;;;;;;13.60;6.68;;;;;;;;;;4979286;28;20154;-71
2022/12/06 15:43:10;;;;;;;13.00;6.50;;;;;;;;;;4984214;28;20042;-72
2022/12/06 15:45:35;;;;;;;17.80;7.60;;;;;;;;;;4980221;28;20518;-72
2022/12/06 15:48:01;;;;;;;17.08;7.57;;;;;;;;;;4986629;28;20075;-72
2022/12/06 15:50:26;;;;;;;16.63;6.15;;;;;;;;;;4985016;28;20467;-72
2022/12/06 15:52:51;;;;;;;12.52;6.05;;;;;;;;;;4982615;28;20165;-71
2022/12/06 15:55:17;;;;;;;15.70;7.07;;;;;;;;;;4984806;28;20491;-72
2022/12/06 15:57:42;;;;;;;13.55;6.10;;;;;;;;;;4982233;28;20105;-72
2022/12/06 16:00:08;;;;;;;13.10;5.72;;;;;;;;;;4981955;28;20037;-72
2022/12/06 16:02:33;;;;;;;14.30;6.63;;;;;;;;;;4984006;28;20026;-72